Time;durP1;ratioP1;P1;durP2;ratioP2;P2;SDS_P1;SDS_P2;PMS_P1;PMS_P2;Temp;Humidity;BMP_temperature;BMP_pressure;BME280_temperature;BME280_humidity;BME280_pressure;Samples;Min_cycle;Max_cycle;Signal;HPM_P1;HPM_P2
2023/01/23 00:03:12;;;;;;;35.90;16.10;;;;;;;1.38;100.00;100055.17;221785;1277;23638;-75
2023/01/23 00:08:16;;;;;;;43.20;17.40;;;;;;;1.37;100.00;100064.08;221670;1277;24229;-74
2023/01/23 00:13:24;;;;;;;48.10;17.80;;;;;;;1.39;100.00;100064.48;221911;1257;22576;-75
2023/01/23 00:18:26;;;;;;;31.10;13.50;;;;;;;1.40;100.00;100061.89;221627;1277;25430;-74
2023/01/23 00:23:28;;;;;;;58.80;22.50;;;;;;;1.39;100.00;100065.41;221704;1275;24120;-74
2023/01/23 00:28:36;;;;;;;28.70;13.60;;;;;;;1.39;100.00;100076.55;221641;1272;22546;-75
2023/01/23 00:33:39;;;;;;;42.10;15.70;;;;;;;1.39;100.00;100080.95;221753;1274;25243;-75
2023/01/23 00:38:42;;;;;;;32.60;13.30;;;;;;;1.37;100.00;100082.59;221645;1277;22552;-74
2023/01/23 00:43:49;;;;;;;31.80;14.10;;;;;;;1.36;100.00;100092.38;221670;1275;22528;-75
2023/01/23 00:48:54;;;;;;;42.50;17.20;;;;;;;1.37;100.00;100098.19;221671;1277;24381;-75
2023/01/23 00:53:57;;;;;;;37.30;15.80;;;;;;;1.39;100.00;100097.79;221649;1269;24203;-75
2023/01/23 00:59:02;;;;;;;51.10;22.10;;;;;;;1.39;100.00;100100.56;221645;1277;23275;-74
2023/01/23 01:04:05;;;;;;;40.50;17.10;;;;;;;1.39;100.00;100108.23;221742;1277;22664;-74
2023/01/23 01:09:13;;;;;;;49.30;22.30;;;;;;;1.37;100.00;100113.99;221681;1277;22531;-75
2023/01/23 01:14:18;;;;;;;45.90;19.60;;;;;;;1.35;100.00;100104.20;221734;1273;22533;-74
2023/01/23 01:19:21;;;;;;;60.50;25.00;;;;;;;1.36;100.00;100108.66;221656;1275;24267;-74
2023/01/23 01:24:23;;;;;;;64.50;24.40;;;;;;;1.37;100.00;100109.07;221789;1273;24291;-75
2023/01/23 01:29:25;;;;;;;47.70;20.10;;;;;;;1.40;100.00;100102.48;221722;1277;22540;-75
2023/01/23 01:34:30;;;;;;;43.80;19.90;;;;;;;1.38;100.00;100105.35;221658;1277;22529;-74
2023/01/23 01:39:32;;;;;;;61.20;23.80;;;;;;;1.37;100.00;100114.80;221693;1256;22533;-75
2023/01/23 01:45:02;;;;;;;53.80;18.90;;;;;;;1.36;100.00;100124.75;221657;1277;22538;-75
2023/01/23 01:50:06;;;;;;;59.30;23.50;;;;;;;1.35;100.00;100121.20;221682;1277;22531;-75
2023/01/23 01:55:14;;;;;;;63.20;24.10;;;;;;;1.34;100.00;100126.73;221678;1277;22530;-74
2023/01/23 02:00:18;;;;;;;62.90;25.30;;;;;;;1.34;100.00;100131.81;221631;1272;22662;-74
2023/01/23 02:05:34;;;;;;;50.60;20.90;;;;;;;1.33;100.00;100132.81;221710;1277;24253;-75
2023/01/23 02:10:43;;;;;;;55.70;23.80;;;;;;;1.31;100.00;100132.96;221650;1277;22731;-75
2023/01/23 02:15:46;;;;;;;64.60;26.30;;;;;;;1.28;100.00;100137.02;221856;1275;22630;-76
2023/01/23 02:20:54;;;;;;;52.60;20.30;;;;;;;1.26;100.00;100125.79;221803;1277;22572;-74
2023/01/23 02:26:26;;;;;;;47.00;18.40;;;;;;;1.25;100.00;100129.11;221726;1277;22552;-75
2023/01/23 02:31:30;;;;;;;61.60;21.10;;;;;;;1.25;100.00;100135.58;221503;1277;22537;-75
2023/01/23 02:36:34;;;;;;;49.10;18.70;;;;;;;1.21;100.00;100141.77;221756;1277;22577;-75
2023/01/23 02:42:01;;;;;;;58.80;20.70;;;;;;;1.17;100.00;100145.59;221697;1275;22532;-75
2023/01/23 02:47:18;;;;;;;72.40;21.90;;;;;;;1.16;100.00;100150.30;221824;1275;23139;-74
2023/01/23 02:52:22;;;;;;;48.80;18.40;;;;;;;1.15;100.00;100155.04;221764;1275;25290;-75
2023/01/23 02:57:24;;;;;;;43.50;17.20;;;;;;;1.10;100.00;100155.77;221732;1275;22671;-75
2023/01/23 03:02:26;;;;;;;43.80;16.70;;;;;;;1.10;100.00;100157.61;221557;1277;25360;-75
2023/01/23 03:07:29;;;;;;;63.70;22.70;;;;;;;1.08;100.00;100162.25;221670;1277;25284;-75
2023/01/23 03:12:31;;;;;;;48.40;20.30;;;;;;;1.09;100.00;100162.77;221775;1275;25376;-75
2023/01/23 03:17:35;;;;;;;55.40;22.00;;;;;;;1.09;100.00;100162.07;221753;1259;23843;-75
2023/01/23 03:22:37;;;;;;;51.60;22.90;;;;;;;1.08;100.00;100154.86;221675;1277;25351;-76
2023/01/23 03:27:42;;;;;;;66.40;26.90;;;;;;;1.08;100.00;100155.67;221573;1276;24407;-76
2023/01/23 03:32:45;;;;;;;40.20;17.60;;;;;;;1.08;100.00;100154.95;221726;1277;22533;-75
2023/01/23 03:37:49;;;;;;;55.60;20.50;;;;;;;1.11;100.00;100160.90;221818;1277;22523;-75
2023/01/23 03:42:55;;;;;;;44.50;17.80;;;;;;;1.14;100.00;100162.02;221920;1275;22606;-75
2023/01/23 03:48:01;;;;;;;56.30;21.20;;;;;;;1.15;100.00;100167.70;221608;1276;24249;-75
2023/01/23 03:53:04;;;;;;;44.40;17.10;;;;;;;1.13;100.00;100167.69;221718;1275;24352;-74
2023/01/23 03:58:08;;;;;;;32.70;13.00;;;;;;;1.11;100.00;100167.52;221763;1277;24472;-74
2023/01/23 04:03:14;;;;;;;46.10;18.40;;;;;;;1.06;100.00;100167.19;221606;1277;22642;-75
2023/01/23 04:08:16;;;;;;;52.80;17.10;;;;;;;1.00;100.00;100164.88;221603;1277;25240;-74
2023/01/23 04:13:19;;;;;;;48.50;18.00;;;;;;;0.98;100.00;100166.84;221666;1275;22535;-75
2023/01/23 04:18:22;;;;;;;53.50;18.70;;;;;;;0.96;100.00;100171.38;221730;1277;22584;-75
2023/01/23 04:23:25;;;;;;;49.70;18.80;;;;;;;0.94;100.00;100176.97;221750;1275;22546;-75
2023/01/23 04:28:31;;;;;;;53.90;17.90;;;;;;;0.91;100.00;100179.33;221742;1277;22538;-75
2023/01/23 04:33:40;;;;;;;55.60;18.80;;;;;;;0.86;100.00;100181.65;221685;1277;24500;-75
2023/01/23 04:38:43;;;;;;;54.70;19.60;;;;;;;0.82;100.00;100185.05;221783;1277;25405;-75
2023/01/23 04:44:20;;;;;;;66.40;20.10;;;;;;;0.80;100.00;100189.64;221598;1277;22534;-74
2023/01/23 04:50:04;;;;;;;54.90;18.30;;;;;;;0.78;100.00;100208.08;221362;1277;25415;-75
2023/01/23 04:55:12;;;;;;;59.10;20.00;;;;;;;0.77;100.00;100220.90;221556;1269;25297;-75
2023/01/23 05:00:18;;;;;;;63.90;19.20;;;;;;;0.76;100.00;100223.45;221754;1277;25357;-75
2023/01/23 05:05:22;;;;;;;62.50;18.90;;;;;;;0.76;100.00;100227.54;221637;1277;24231;-75
2023/01/23 05:10:26;;;;;;;55.10;18.10;;;;;;;0.75;100.00;100228.54;221687;1271;25380;-75
2023/01/23 05:15:34;;;;;;;55.90;18.40;;;;;;;0.75;100.00;100218.65;221717;1277;22529;-75
2023/01/23 05:20:36;;;;;;;45.50;15.70;;;;;;;0.74;100.00;100213.30;221716;1275;22533;-75
2023/01/23 05:25:42;;;;;;;51.40;16.40;;;;;;;0.75;100.00;100211.34;221646;1275;22631;-75
2023/01/23 05:30:50;;;;;;;45.30;16.50;;;;;;;0.76;100.00;100216.30;221690;1277;25328;-75
2023/01/23 05:36:12;;;;;;;42.10;14.60;;;;;;;0.78;100.00;100212.71;221731;1275;23830;-76
2023/01/23 05:41:18;;;;;;;43.00;17.30;;;;;;;0.78;100.00;100217.59;221799;1277;25412;-75
2023/01/23 05:46:53;;;;;;;43.00;17.30;;;;;;;0.80;100.00;100227.05;221494;1278;22536;-74
2023/01/23 05:51:56;;;;;;;35.90;13.60;;;;;;;0.76;100.00;100231.98;221707;1276;25376;-75
2023/01/23 05:56:59;;;;;;;50.80;17.60;;;;;;;0.75;100.00;100239.42;221711;1276;23033;-75
2023/01/23 06:02:14;;;;;;;53.30;18.90;;;;;;;0.75;100.00;100249.98;221739;1277;22520;-75
2023/01/23 06:07:36;;;;;;;47.70;17.20;;;;;;;0.74;100.00;100259.60;221752;1275;23945;-75
2023/01/23 06:12:40;;;;;;;54.10;19.10;;;;;;;0.75;100.00;100253.84;221820;1276;22629;-75
2023/01/23 06:17:43;;;;;;;65.30;19.90;;;;;;;0.77;100.00;100261.15;221746;1277;22573;-75
2023/01/23 06:22:46;;;;;;;43.90;16.10;;;;;;;0.77;100.00;100274.14;221787;1271;22645;-75
2023/01/23 06:27:57;;;;;;;56.80;20.00;;;;;;;0.80;100.00;100288.71;221760;1277;22533;-75
2023/01/23 06:33:02;;;;;;;62.10;20.10;;;;;;;0.82;100.00;100307.23;221654;1274;23817;-75
2023/01/23 06:38:09;;;;;;;54.90;20.40;;;;;;;0.82;100.00;100308.88;221661;1275;25269;-75
2023/01/23 06:43:12;;;;;;;75.20;24.20;;;;;;;0.82;100.00;100310.12;221663;1276;24114;-74
2023/01/23 06:48:15;;;;;;;72.70;23.30;;;;;;;0.80;100.00;100322.40;221747;1278;24186;-75
2023/01/23 06:53:18;;;;;;;56.90;19.90;;;;;;;0.79;100.00;100327.52;222183;1266;140242;-75
2023/01/23 06:58:22;;;;;;;66.70;20.60;;;;;;;0.80;100.00;100329.46;221856;1266;138948;-75
2023/01/23 07:03:27;;;;;;;60.50;21.60;;;;;;;0.80;100.00;100331.36;222164;1256;139116;-75
2023/01/23 07:08:33;;;;;;;72.00;22.70;;;;;;;0.80;100.00;100331.66;222112;1269;23820;-75
2023/01/23 07:13:37;;;;;;;41.80;15.50;;;;;;;0.83;100.00;100334.52;222095;1260;138750;-73
2023/01/23 07:18:39;;;;;;;46.10;15.30;;;;;;;0.87;100.00;100336.64;221918;1264;138977;-73
2023/01/23 07:23:42;;;;;;;59.60;20.60;;;;;;;0.93;100.00;100345.83;221889;1263;139158;-74
2023/01/23 07:28:47;;;;;;;51.20;21.20;;;;;;;0.95;100.00;100342.54;222130;1260;139153;-73
2023/01/23 07:33:49;;;;;;;61.90;21.70;;;;;;;1.00;100.00;100344.21;221987;1263;139480;-74
2023/01/23 07:38:52;;;;;;;63.00;22.30;;;;;;;1.01;100.00;100343.00;222045;1265;25453;-74
2023/01/23 07:43:57;;;;;;;60.50;21.80;;;;;;;1.05;100.00;100341.70;221891;1260;138577;-74
2023/01/23 07:49:00;;;;;;;59.50;23.20;;;;;;;1.07;100.00;100344.73;221844;1273;139366;-75
2023/01/23 07:54:02;;;;;;;61.30;20.10;;;;;;;1.11;100.00;100348.91;221818;1273;139096;-75
2023/01/23 07:59:05;;;;;;;55.30;20.50;;;;;;;1.15;100.00;100344.98;221767;1277;139980;-75
2023/01/23 08:04:07;;;;;;;54.90;20.10;;;;;;;1.26;100.00;100346.75;221836;1270;138952;-75
2023/01/23 08:09:11;;;;;;;53.40;19.30;;;;;;;1.35;100.00;100351.55;222119;1274;24233;-74
2023/01/23 08:14:23;;;;;;;55.70;20.10;;;;;;;1.45;100.00;100357.27;222032;1267;138835;-73
2023/01/23 08:19:26;;;;;;;52.50;20.50;;;;;;;1.52;100.00;100362.02;222221;1265;139030;-75
2023/01/23 08:24:37;;;;;;;53.90;20.60;;;;;;;1.58;100.00;100367.51;222006;1263;139025;-75
2023/01/23 08:29:39;;;;;;;64.60;22.00;;;;;;;1.62;100.00;100369.21;221877;1264;140062;-73
2023/01/23 08:34:44;;;;;;;65.10;21.70;;;;;;;1.68;100.00;100368.13;221787;1259;138915;-74
2023/01/23 08:39:47;;;;;;;54.30;20.30;;;;;;;1.71;100.00;100373.36;221986;1260;138984;-76
2023/01/23 08:44:49;;;;;;;66.40;22.50;;;;;;;1.70;100.00;100382.66;222147;1270;22754;-74
2023/01/23 08:49:51;;;;;;;61.30;20.20;;;;;;;1.68;100.00;100384.47;222013;1266;138821;-72
2023/01/23 08:54:53;;;;;;;61.90;20.40;;;;;;;1.66;100.00;100389.36;221835;1271;138830;-76
2023/01/23 08:59:55;;;;;;;64.90;22.30;;;;;;;1.63;100.00;100383.04;221910;1264;139369;-76
2023/01/23 09:04:58;;;;;;;68.50;23.40;;;;;;;1.64;100.00;100391.80;221886;1272;139643;-75
2023/01/23 09:10:00;;;;;;;48.60;18.60;;;;;;;1.63;100.00;100390.04;221905;1257;138948;-77
2023/01/23 09:15:03;;;;;;;52.50;20.40;;;;;;;1.66;100.00;100392.83;221956;1270;22537;-78
2023/01/23 09:20:08;;;;;;;68.60;25.10;;;;;;;1.73;100.00;100393.58;221869;1273;138599;-78
2023/01/23 09:25:13;;;;;;;62.00;22.60;;;;;;;1.79;100.00;100392.85;222121;1260;139284;-78
2023/01/23 09:30:16;;;;;;;72.60;25.70;;;;;;;1.86;100.00;100394.25;222350;1254;138981;-78
2023/01/23 09:35:23;;;;;;;64.50;23.80;;;;;;;1.94;100.00;100392.64;222035;1263;401546;-78
2023/01/23 09:43:44;;;;;;;69.50;25.00;;;;;;;2.10;100.00;100387.11;215182;1303;545423;-77
2023/01/23 09:49:49;;;;;;;71.50;24.20;;;;;;;2.20;100.00;100380.23;220195;1281;137125;-76
2023/01/23 09:55:00;;;;;;;71.60;23.70;;;;;;;2.34;100.00;100381.44;220740;1285;237576;-77
2023/01/23 10:00:28;;;;;;;70.80;23.90;;;;;;;2.40;100.00;100381.56;219818;1285;138225;-76
2023/01/23 10:06:04;;;;;;;54.60;19.00;;;;;;;2.44;100.00;100376.75;219897;1283;138875;-78
2023/01/23 10:11:25;;;;;;;60.30;22.30;;;;;;;2.55;100.00;100372.61;219901;1272;138618;-78
2023/01/23 10:16:51;;;;;;;53.40;22.30;;;;;;;2.68;100.00;100375.89;219873;1284;138760;-79
2023/01/23 10:22:27;;;;;;;60.50;22.80;;;;;;;2.77;100.00;100369.64;219748;1284;138797;-79
2023/01/23 10:27:42;;;;;;;62.40;23.70;;;;;;;2.81;100.00;100368.61;219793;1285;138262;-78
2023/01/23 10:32:51;;;;;;;57.30;24.00;;;;;;;2.86;100.00;100372.21;219960;1283;24273;-79
2023/01/23 10:38:25;;;;;;;50.80;20.90;;;;;;;2.91;100.00;100367.42;220121;1283;138978;-77
2023/01/23 10:43:27;;;;;;;46.50;21.00;;;;;;;4.80;100.00;100357.71;219825;1281;138189;-79
2023/01/23 10:49:46;;;;;;;50.80;22.60;;;;;;;3.56;100.00;100362.90;215558;1305;544883;-79
2023/01/23 10:54:49;;;;;;;51.90;22.60;;;;;;;3.20;100.00;100369.17;220047;1285;137878;-72
2023/01/23 11:00:16;;;;;;;45.10;21.40;;;;;;;3.08;100.00;100364.26;219393;1284;377801;-79
2023/01/23 11:05:44;;;;;;;48.70;20.20;;;;;;;3.00;100.00;100365.17;219666;1286;138458;-80
2023/01/23 11:11:21;;;;;;;41.80;20.20;;;;;;;2.92;100.00;100366.13;219841;1285;138861;-81
2023/01/23 11:16:29;;;;;;;43.10;20.00;;;;;;;2.86;100.00;100359.83;221194;1284;138179;-81
2023/01/23 11:21:40;;;;;;;36.00;17.50;;;;;;;2.74;100.00;100356.94;221123;1285;138233;-79
2023/01/23 11:26:45;;;;;;;43.70;21.40;;;;;;;2.60;100.00;100353.79;220838;1285;23323;-81
2023/01/23 11:31:59;;;;;;;43.70;20.80;;;;;;;2.56;100.00;100348.61;220255;1282;138080;-81
2023/01/23 11:37:16;;;;;;;40.60;17.50;;;;;;;2.57;100.00;100340.25;220823;1281;138058;-80
2023/01/23 11:42:27;;;;;;;36.00;19.20;;;;;;;2.51;100.00;100340.89;220696;1285;138362;-81
2023/01/23 11:47:59;;;;;;;50.40;24.10;;;;;;;2.45;100.00;100337.52;220287;1284;138509;-80
2023/01/23 11:53:27;;;;;;;42.40;21.20;;;;;;;2.50;100.00;100334.36;220172;1288;138633;-81
2023/01/23 11:59:15;;;;;;;48.20;22.50;;;;;;;2.57;100.00;100334.23;220488;1284;138379;-80
2023/01/23 12:05:04;;;;;;;41.00;17.40;;;;;;;2.61;100.00;100333.23;221580;1287;138900;-79
2023/01/23 12:11:08;;;;;;;49.70;22.20;;;;;;;2.60;100.00;100327.11;220328;1284;138497;-79
2023/01/23 12:16:25;;;;;;;51.40;20.90;;;;;;;2.65;100.00;100317.20;221216;1287;138475;-80
2023/01/23 12:21:57;;;;;;;46.70;20.20;;;;;;;2.65;100.00;100318.09;220493;1287;138387;-79
2023/01/23 12:27:16;;;;;;;45.90;20.30;;;;;;;2.59;100.00;100312.66;220476;1287;22827;-80
2023/01/23 12:32:56;;;;;;;49.50;21.90;;;;;;;2.57;100.00;100312.17;220524;1287;138081;-81
2023/01/23 12:38:40;;;;;;;54.30;23.00;;;;;;;2.61;100.00;100315.65;220386;1285;138177;-80
2023/01/23 12:43:50;;;;;;;49.10;21.50;;;;;;;2.62;100.00;100316.87;220249;1288;138302;-81
2023/01/23 12:49:18;;;;;;;57.00;24.30;;;;;;;2.63;100.00;100308.04;220423;1285;138189;-81
2023/01/23 12:54:34;;;;;;;58.30;24.40;;;;;;;2.75;100.00;100311.70;220618;1285;138454;-81
2023/01/23 12:59:57;;;;;;;53.40;23.20;;;;;;;2.85;100.00;100306.65;220476;1287;138441;-81
2023/01/23 13:05:15;;;;;;;43.80;21.30;;;;;;;2.94;100.00;100308.87;220441;1286;138411;-81
2023/01/23 13:16:13;;;;;;;39.10;20.10;;;;;;;3.00;100.00;100316.26;220498;1273;140294;-80
2023/01/23 13:26:43;;;;;;;38.40;18.00;;;;;;;2.89;100.00;100329.22;220369;1288;22587;-79
2023/01/23 13:32:24;;;;;;;43.40;19.40;;;;;;;2.83;100.00;100329.27;220322;1285;139070;-79
2023/01/23 13:37:38;;;;;;;45.60;18.10;;;;;;;2.77;100.00;100330.65;220301;1286;139387;-80
2023/01/23 13:42:40;;;;;;;39.00;16.80;;;;;;;2.67;100.00;100335.27;220623;1276;138543;-79
2023/01/23 13:59:05;;;;;;;39.70;17.80;;;;;;;2.42;100.00;100339.70;219794;1276;139760;-80
2023/01/23 14:10:20;;;;;;;44.30;18.80;;;;;;;2.34;100.00;100339.79;217605;1302;138805;-79
2023/01/23 14:16:16;;;;;;;46.30;20.20;;;;;;;2.29;100.00;100336.29;216463;1304;138805;-79
2023/01/23 14:21:48;;;;;;;52.30;20.80;;;;;;;2.23;100.00;100343.27;216454;1302;138654;-79
2023/01/23 14:27:08;;;;;;;47.60;20.80;;;;;;;2.18;100.00;100346.39;216604;1301;24423;-79
2023/01/23 14:32:26;;;;;;;51.40;19.90;;;;;;;2.14;100.00;100350.48;216568;1299;138491;-80
2023/01/23 14:37:34;;;;;;;46.40;20.20;;;;;;;2.08;100.00;100352.03;218607;1287;138964;-75
2023/01/23 14:42:38;;;;;;;51.50;21.20;;;;;;;2.04;100.00;100354.38;219433;1286;138579;-75
2023/01/23 14:47:45;;;;;;;62.80;23.60;;;;;;;1.99;100.00;100352.71;220662;1280;139036;-76
2023/01/23 14:53:03;;;;;;;54.60;21.30;;;;;;;1.96;100.00;100347.08;220632;1264;138569;-77
2023/01/23 14:58:22;;;;;;;56.20;22.80;;;;;;;1.93;100.00;100340.39;220432;1273;138721;-77
2023/01/23 15:04:05;;;;;;;55.10;21.10;;;;;;;1.90;100.00;100334.11;221002;1273;22559;-78
2023/01/23 15:09:20;;;;;;;63.50;24.40;;;;;;;1.86;100.00;100331.23;220328;1285;24241;-79
2023/01/23 15:14:33;;;;;;;64.10;24.30;;;;;;;1.80;100.00;100331.60;221604;1279;24260;-78
2023/01/23 15:19:44;;;;;;;64.00;23.70;;;;;;;1.76;100.00;100341.69;221717;1273;24276;-78
2023/01/23 15:24:59;;;;;;;58.00;21.80;;;;;;;1.74;100.00;100350.86;221728;1279;25191;-78
2023/01/23 15:30:44;;;;;;;68.70;25.20;;;;;;;1.72;100.00;100352.11;222254;1274;22551;-79
2023/01/23 15:36:04;;;;;;;54.60;23.10;;;;;;;1.68;100.00;100357.16;221555;1279;25326;-79
2023/01/23 15:41:16;;;;;;;73.60;28.10;;;;;;;1.65;100.00;100356.88;221480;1273;25324;-78
2023/01/23 15:46:35;;;;;;;71.70;27.40;;;;;;;1.62;100.00;100352.96;221576;1278;23639;-79
2023/01/23 15:51:43;;;;;;;84.40;29.50;;;;;;;1.60;100.00;100358.23;221496;1279;24246;-78
2023/01/23 15:56:46;;;;;;;77.80;25.70;;;;;;;1.58;100.00;100354.95;221249;1279;22563;-79
2023/01/23 16:02:15;;;;;;;52.80;21.80;;;;;;;1.56;100.00;100353.11;221388;1279;22552;-78
2023/01/23 16:07:37;;;;;;;54.00;22.50;;;;;;;1.58;100.00;100355.16;221513;1279;22799;-79
2023/01/23 16:12:47;;;;;;;61.70;23.40;;;;;;;1.61;100.00;100353.55;221369;1279;23238;-79
2023/01/23 16:18:03;;;;;;;57.40;21.80;;;;;;;1.65;100.00;100352.30;221478;1279;24405;-78
2023/01/23 16:23:30;;;;;;;42.30;19.10;;;;;;;1.68;100.00;100358.26;221333;1278;22623;-79
2023/01/23 16:28:55;;;;;;;;;;;;;;;1.71;100.00;100363.00;221554;1279;22573;-78
2023/01/23 16:34:20;;;;;;;53.70;21.50;;;;;;;1.76;100.00;100369.16;221702;1279;22530;-79
2023/01/23 16:39:25;;;;;;;38.70;17.70;;;;;;;1.78;100.00;100377.61;221534;1278;22645;-79
2023/01/23 16:44:33;;;;;;;61.50;26.50;;;;;;;1.80;100.00;100381.93;221494;1276;22546;-78
2023/01/23 16:49:38;;;;;;;64.10;25.90;;;;;;;1.81;100.00;100389.17;221422;1275;24259;-79
2023/01/23 16:54:54;;;;;;;67.40;28.30;;;;;;;1.80;100.00;100387.77;221672;1279;25521;-78
2023/01/23 17:00:00;;;;;;;54.20;24.20;;;;;;;1.82;100.00;100389.46;221327;1263;24264;-78
2023/01/23 17:05:10;;;;;;;46.50;19.20;;;;;;;1.83;100.00;100390.61;221510;1276;26544;-78
2023/01/23 17:10:26;;;;;;;48.40;22.90;;;;;;;1.77;100.00;100386.70;221620;1279;24264;-80
2023/01/23 17:15:48;;;;;;;58.90;26.50;;;;;;;1.75;100.00;100386.35;221374;1279;22537;-79
2023/01/23 17:20:56;;;;;;;53.90;24.60;;;;;;;1.75;100.00;100386.15;221380;1279;22617;-79
2023/01/23 17:25:58;;;;;;;56.40;26.30;;;;;;;1.76;100.00;100385.06;221638;1273;24280;-78
2023/01/23 17:31:04;;;;;;;44.00;20.20;;;;;;;1.74;100.00;100386.63;221542;1279;26391;-78
2023/01/23 17:36:06;;;;;;;61.40;25.40;;;;;;;1.69;100.00;100394.23;221577;1276;22662;-78
2023/01/23 17:41:17;;;;;;;53.60;24.20;;;;;;;1.69;100.00;100399.65;221679;1279;22536;-78
2023/01/23 17:46:26;;;;;;;69.50;31.00;;;;;;;1.71;100.00;100400.88;221423;1278;22537;-79
2023/01/23 17:51:32;;;;;;;43.50;19.40;;;;;;;1.72;100.00;100404.45;221729;1276;23504;-78
2023/01/23 17:56:37;;;;;;;49.40;21.10;;;;;;;1.72;100.00;100408.69;221606;1278;25412;-79
2023/01/23 18:01:39;;;;;;;61.30;25.60;;;;;;;1.70;100.00;100403.83;221656;1273;24225;-78
2023/01/23 18:06:45;;;;;;;54.70;23.90;;;;;;;1.71;100.00;100411.11;221573;1272;25314;-78
2023/01/23 18:11:55;;;;;;;;;;;;;;;1.72;100.00;100410.95;221746;1279;25220;-79
2023/01/23 18:17:00;;;;;;;44.20;19.10;;;;;;;1.71;100.00;100411.58;221664;1257;22654;-78
2023/01/23 18:22:09;;;;;;;49.30;20.30;;;;;;;1.66;100.00;100410.79;221537;1278;25422;-78
2023/01/23 18:27:28;;;;;;;48.90;21.30;;;;;;;1.63;100.00;100415.39;221566;1279;23254;-79
2023/01/23 18:33:14;;;;;;;40.80;18.80;;;;;;;1.63;100.00;100414.51;222551;1272;24346;-79
2023/01/23 18:39:00;;;;;;;56.60;21.30;;;;;;;1.63;100.00;100409.66;222306;1279;22539;-79
2023/01/23 18:44:33;;;;;;;58.40;20.90;;;;;;;1.65;100.00;100408.86;221561;1276;25379;-79
2023/01/23 18:49:39;;;;;;;43.70;18.30;;;;;;;1.64;100.00;100413.61;221565;1279;25483;-80
2023/01/23 18:55:23;;;;;;;44.10;18.20;;;;;;;1.61;100.00;100411.96;221557;1279;25220;-78
2023/01/23 19:00:48;;;;;;;41.30;17.40;;;;;;;1.61;100.00;100415.70;221596;1278;22570;-79
2023/01/23 19:06:11;;;;;;;46.60;18.10;;;;;;;1.60;100.00;100418.61;221664;1275;22579;-78
2023/01/23 19:11:53;;;;;;;38.90;17.40;;;;;;;1.61;100.00;100417.98;221632;1279;25398;-78
2023/01/23 19:17:35;;;;;;;46.80;18.30;;;;;;;1.58;100.00;100420.83;221626;1275;22537;-78
2023/01/23 19:22:52;;;;;;;43.40;18.40;;;;;;;1.54;100.00;100415.07;221351;1260;22621;-79
2023/01/23 19:27:58;;;;;;;53.50;21.50;;;;;;;1.54;100.00;100414.21;221532;1264;22550;-79
2023/01/23 19:33:02;;;;;;;53.00;22.60;;;;;;;1.53;100.00;100419.41;221446;1275;23238;-79
2023/01/23 19:38:07;;;;;;;54.70;22.80;;;;;;;1.54;100.00;100420.02;221507;1267;23326;-79
2023/01/23 19:43:15;;;;;;;45.20;19.10;;;;;;;1.54;100.00;100423.04;221367;1279;22575;-79
2023/01/23 19:48:24;;;;;;;44.00;18.80;;;;;;;1.52;100.00;100420.45;221313;1279;22608;-79
2023/01/23 19:53:32;;;;;;;42.10;19.10;;;;;;;1.51;100.00;100421.02;221535;1276;22549;-78
2023/01/23 19:58:38;;;;;;;59.00;22.30;;;;;;;1.50;100.00;100423.84;221283;1278;22542;-79
2023/01/23 20:03:45;;;;;;;49.20;21.50;;;;;;;1.47;100.00;100425.78;221532;1277;23269;-78
2023/01/23 20:08:48;;;;;;;45.00;19.70;;;;;;;1.42;100.00;100430.02;221307;1279;23782;-78
2023/01/23 20:13:56;;;;;;;49.40;20.80;;;;;;;1.39;100.00;100428.05;221631;1275;22700;-78
2023/01/23 20:19:01;;;;;;;42.70;18.60;;;;;;;1.39;100.00;100433.32;221612;1257;22529;-79
2023/01/23 20:24:04;;;;;;;40.40;19.50;;;;;;;1.37;100.00;100434.68;222470;1276;22546;-78
2023/01/23 20:29:10;;;;;;;51.00;19.80;;;;;;;1.35;100.00;100433.11;221286;1279;25467;-79
2023/01/23 20:34:35;;;;;;;37.00;16.40;;;;;;;1.34;100.00;100437.61;221548;1279;22542;-79
2023/01/23 20:39:39;;;;;;;44.80;18.00;;;;;;;1.33;100.00;100434.52;221575;1279;25413;-78
2023/01/23 20:44:47;;;;;;;38.50;16.10;;;;;;;1.33;100.00;100436.63;221396;1279;22536;-79
2023/01/23 20:49:50;;;;;;;45.40;19.40;;;;;;;1.31;100.00;100437.82;221373;1279;22540;-77
2023/01/23 20:55:05;;;;;;;43.50;18.70;;;;;;;1.33;100.00;100438.95;221541;1275;24224;-78
2023/01/23 21:00:12;;;;;;;42.50;17.00;;;;;;;1.33;100.00;100435.73;221577;1277;22621;-78
2023/01/23 21:05:15;;;;;;;43.30;17.80;;;;;;;1.35;100.00;100439.09;221592;1275;24301;-79
2023/01/23 21:10:27;;;;;;;39.40;17.40;;;;;;;1.37;100.00;100440.65;221520;1279;25328;-78
2023/01/23 21:15:33;;;;;;;33.70;15.40;;;;;;;1.37;100.00;100442.20;221353;1276;22552;-78
2023/01/23 21:20:40;;;;;;;38.50;17.00;;;;;;;1.36;100.00;100443.36;221407;1271;23699;-78
2023/01/23 21:26:02;;;;;;;40.70;15.50;;;;;;;1.34;100.00;100440.94;221665;1275;22891;-79
2023/01/23 21:31:17;;;;;;;44.70;17.00;;;;;;;1.33;100.00;100443.52;221498;1272;22533;-78
2023/01/23 21:36:27;;;;;;;47.40;17.60;;;;;;;1.33;100.00;100444.27;221502;1278;25281;-77
2023/01/23 21:41:32;;;;;;;31.60;14.10;;;;;;;1.34;100.00;100441.64;221424;1275;23646;-78
2023/01/23 21:46:35;;;;;;;44.20;17.10;;;;;;;1.33;100.00;100440.86;221697;1279;24302;-78
2023/01/23 21:51:43;;;;;;;51.50;18.30;;;;;;;1.34;100.00;100448.14;221422;1279;22721;-79
2023/01/23 21:56:49;;;;;;;34.00;16.40;;;;;;;1.35;100.00;100448.16;221445;1279;25371;-79
2023/01/23 22:01:55;;;;;;;43.40;17.50;;;;;;;1.37;100.00;100446.95;221549;1276;24465;-78
2023/01/23 22:07:00;;;;;;;39.60;17.00;;;;;;;1.37;100.00;100452.92;221500;1276;23019;-80
2023/01/23 22:12:03;;;;;;;34.90;14.10;;;;;;;1.37;100.00;100458.73;221454;1278;22548;-78
2023/01/23 22:17:13;;;;;;;36.10;15.20;;;;;;;1.36;100.00;100460.63;221541;1279;22543;-78
2023/01/23 22:22:28;;;;;;;40.40;16.70;;;;;;;1.34;100.00;100462.27;221407;1278;25413;-77
2023/01/23 22:27:36;;;;;;;47.40;17.90;;;;;;;1.34;100.00;100452.23;221334;1278;23384;-78
2023/01/23 22:32:46;;;;;;;60.90;20.10;;;;;;;1.33;100.00;100452.67;221331;1268;25588;-78
2023/01/23 22:37:54;;;;;;;49.50;18.40;;;;;;;1.28;100.00;100444.16;221313;1276;22539;-78
2023/01/23 22:43:02;;;;;;;37.00;14.50;;;;;;;1.32;100.00;100452.42;221511;1278;24266;-78
2023/01/23 22:48:06;;;;;;;58.60;20.20;;;;;;;1.33;100.00;100450.52;221464;1275;25413;-78
2023/01/23 22:53:10;;;;;;;50.80;19.40;;;;;;;1.36;100.00;100451.04;221230;1278;25708;-79
2023/01/23 22:58:22;;;;;;;58.90;21.70;;;;;;;1.40;100.00;100450.64;221567;1278;24411;-79
2023/01/23 23:03:26;;;;;;;47.70;21.40;;;;;;;1.41;100.00;100451.50;220295;1278;1442500;-78
2023/01/23 23:08:29;;;;;;;49.40;19.40;;;;;;;1.42;100.00;100455.45;221348;1275;25464;-78
2023/01/23 23:13:39;;;;;;;53.90;20.30;;;;;;;1.46;100.00;100454.08;222347;1276;22596;-79
2023/01/23 23:18:43;;;;;;;53.10;21.20;;;;;;;1.50;100.00;100455.58;221734;1275;22533;-77
2023/01/23 23:23:49;;;;;;;46.10;19.40;;;;;;;1.50;100.00;100455.49;221606;1279;24235;-79
2023/01/23 23:29:02;;;;;;;53.80;20.50;;;;;;;1.51;100.00;100455.55;221677;1279;23770;-78
2023/01/23 23:34:05;;;;;;;51.80;21.10;;;;;;;1.52;100.00;100457.27;221653;1277;22543;-77
2023/01/23 23:39:09;;;;;;;56.20;20.80;;;;;;;1.50;100.00;100455.13;221551;1275;25272;-78
2023/01/23 23:44:11;;;;;;;45.50;17.70;;;;;;;1.53;100.00;100458.86;221443;1275;25236;-77
2023/01/23 23:49:20;;;;;;;55.50;20.80;;;;;;;1.55;100.00;100452.17;221711;1279;22720;-78